Time;durP1;ratioP1;P1;durP2;ratioP2;P2;SDS_P1;SDS_P2;PMS_P1;PMS_P2;Temp;Humidity;BMP_temperature;BMP_pressure;BME280_temperature;BME280_humidity;BME280_pressure;Samples;Min_cycle;Max_cycle;Signal;HPM_P1;HPM_P2
2021/12/03 00:00:48;;;;;;;1.17;0.77;;;;;;;12.35;63.88;99479.53;5034662;28;20446;-58
2021/12/03 00:03:34;;;;;;;3.97;1.95;;;;;;;12.34;62.01;99477.19;5033648;28;20044;-58
2021/12/03 00:06:19;;;;;;;3.00;1.23;;;;;;;12.31;61.42;99477.88;5036388;28;20065;-58
2021/12/03 00:09:06;;;;;;;2.22;1.10;;;;;;;12.24;60.89;99494.84;5033519;28;20064;-58
2021/12/03 00:11:51;;;;;;;1.13;0.80;;;;;;;12.22;60.31;99494.44;5033376;28;20044;-58
2021/12/03 00:14:35;;;;;;;2.90;1.85;;;;;;;12.23;64.08;99493.31;5037421;28;20056;-57
2021/12/03 00:17:20;;;;;;;;;;;;;;;12.28;67.61;99500.41;5036031;28;20048;-58
2021/12/03 00:20:08;;;;;;;5.97;3.13;;;;;;;12.31;67.63;99499.69;5033116;28;19922;-58
2021/12/03 00:22:57;;;;;;;3.80;1.83;;;;;;;12.36;69.15;99510.31;5037196;28;20053;-58
2021/12/03 00:25:42;;;;;;;5.28;3.33;;;;;;;12.36;68.03;99513.81;5021793;28;20060;-57
2021/12/03 00:28:29;;;;;;;3.40;1.88;;;;;;;12.38;67.99;99521.66;5033077;28;20049;-58
2021/12/03 00:31:13;;;;;;;4.05;2.58;;;;;;;12.38;67.85;99524.38;5035584;28;20060;-58
2021/12/03 00:33:58;;;;;;;;;;;;;;;12.36;66.34;99529.38;5035718;28;20045;-59
2021/12/03 00:36:43;;;;;;;6.75;3.00;;;;;;;12.35;66.17;99523.13;5032698;28;19913;-58
2021/12/03 00:39:28;;;;;;;5.18;2.47;;;;;;;12.37;68.11;99529.03;5036636;28;20447;-58
2021/12/03 00:42:16;;;;;;;4.60;2.90;;;;;;;12.37;67.07;99525.53;5032239;28;20052;-58
2021/12/03 00:45:03;;;;;;;4.80;3.38;;;;;;;12.36;68.28;99541.09;5033184;28;20404;-58
2021/12/03 00:47:49;;;;;;;3.80;2.63;;;;;;;12.36;65.77;99553.91;5028046;28;20523;-58
2021/12/03 00:50:33;;;;;;;5.07;2.83;;;;;;;12.38;68.30;99559.81;5034379;28;20036;-58
2021/12/03 00:53:18;;;;;;;;;;;;;;;12.33;65.29;99557.38;5034227;28;20071;-59
2021/12/03 00:56:03;;;;;;;6.47;2.47;;;;;;;12.32;64.98;99570.22;5036214;28;19913;-58
2021/12/03 00:58:48;;;;;;;3.10;2.20;;;;;;;12.34;65.86;99573.34;5035962;28;20037;-58
2021/12/03 01:01:33;;;;;;;;;;;;;;;12.36;67.93;99581.19;5033525;28;20056;-58
2021/12/03 01:04:18;;;;;;;3.58;2.20;;;;;;;12.34;65.67;99578.81;5031063;28;20284;-58
2021/12/03 01:07:03;;;;;;;;;;;;;;;12.34;67.11;99584.25;5035989;28;20508;-58
2021/12/03 01:09:48;;;;;;;3.33;2.37;;;;;;;12.32;65.78;99583.03;5033944;28;19913;-58
2021/12/03 01:12:33;;;;;;;;;;;;;;;12.28;64.99;99582.19;5032176;28;20045;-58
2021/12/03 01:15:22;;;;;;;5.57;3.15;;;;;;;12.32;65.83;99593.94;5036034;28;19913;-58
2021/12/03 01:18:10;;;;;;;7.22;4.32;;;;;;;12.32;65.07;99599.41;5037958;28;20060;-58
2021/12/03 01:20:55;;;;;;;7.80;4.85;;;;;;;12.33;66.97;99601.78;5039545;28;20044;-58
2021/12/03 01:23:40;;;;;;;7.28;4.15;;;;;;;12.30;65.86;99602.47;5036661;28;20044;-58
2021/12/03 01:26:25;;;;;;;7.68;4.15;;;;;;;12.33;68.06;99598.25;5038121;28;20048;-58
2021/12/03 01:29:10;;;;;;;7.22;4.80;;;;;;;12.31;67.08;99606.78;5035625;28;20053;-58
2021/12/03 01:31:56;;;;;;;9.93;5.90;;;;;;;12.27;64.36;99608.63;5029181;28;20052;-58
2021/12/03 01:34:41;;;;;;;7.80;5.22;;;;;;;12.26;64.48;99617.16;5037878;28;20492;-59
2021/12/03 01:37:26;;;;;;;4.95;3.28;;;;;;;12.30;67.36;99621.56;5035771;28;20397;-58
2021/12/03 01:40:15;;;;;;;5.55;3.42;;;;;;;12.33;66.76;99628.25;5039590;28;20379;-58
2021/12/03 01:43:02;;;;;;;4.20;2.45;;;;;;;12.35;69.55;99629.47;5037069;28;20515;-58
2021/12/03 01:45:47;;;;;;;7.75;4.75;;;;;;;12.33;68.97;99633.69;5035483;28;20049;-58
2021/12/03 01:48:32;;;;;;;7.75;3.47;;;;;;;12.30;66.67;99634.38;5039408;28;20507;-58
2021/12/03 01:51:19;;;;;;;10.98;5.72;;;;;;;12.33;67.90;99622.78;5037450;28;20048;-58
2021/12/03 01:54:04;;;;;;;5.68;2.88;;;;;;;12.34;69.54;99635.28;5035744;28;20068;-58
2021/12/03 01:56:49;;;;;;;12.55;7.60;;;;;;;12.30;67.45;99635.19;5039267;28;20400;-58
2021/12/03 01:59:34;;;;;;;12.02;7.72;;;;;;;12.23;64.38;99629.56;5023694;28;20405;-58
2021/12/03 02:02:19;;;;;;;20.67;8.10;;;;;;;12.28;65.55;99636.69;5033944;28;20040;-58
2021/12/03 02:05:05;;;;;;;9.05;4.90;;;;;;;12.27;67.58;99635.91;5039311;28;20056;-58
2021/12/03 02:07:50;;;;;;;6.75;3.58;;;;;;;12.28;68.41;99637.50;5028568;28;20052;-58
2021/12/03 02:10:35;;;;;;;4.32;2.80;;;;;;;12.30;70.48;99650.75;5035589;28;20519;-58
2021/12/03 02:13:20;;;;;;;3.97;1.80;;;;;;;12.32;70.26;99662.09;5031439;28;20059;-58
2021/12/03 02:16:05;;;;;;;;;;;;;;;12.33;71.70;99660.97;5037503;28;20049;-57
2021/12/03 02:18:51;;;;;;;9.50;5.70;;;;;;;12.31;71.11;99663.22;5035921;28;19912;-58
2021/12/03 02:21:38;;;;;;;7.32;4.35;;;;;;;12.29;69.17;99666.31;5016913;28;20049;-58
2021/12/03 02:24:23;;;;;;;4.88;3.25;;;;;;;12.30;68.92;99672.56;5034948;28;20048;-58
2021/12/03 02:27:08;;;;;;;7.22;2.95;;;;;;;12.33;70.97;99680.03;5035234;28;20044;-57
2021/12/03 02:29:52;;;;;;;;;;;;;;;12.32;71.73;99675.72;5040256;28;20048;-58
2021/12/03 02:32:38;;;;;;;4.07;2.45;;;;;;;12.34;72.44;99687.09;5037736;28;20395;-58
2021/12/03 02:35:24;;;;;;;5.63;2.75;;;;;;;12.36;72.66;99687.50;5034742;28;20507;-57
2021/12/03 02:38:12;;;;;;;3.78;2.42;;;;;;;12.36;72.82;99699.19;5038892;28;20057;-58
2021/12/03 02:40:58;;;;;;;3.35;2.13;;;;;;;12.37;72.86;99711.69;5037149;28;20056;-58
2021/12/03 02:43:42;;;;;;;;;;;;;;;12.39;72.92;99725.00;5035228;28;20044;-58
2021/12/03 02:46:27;;;;;;;6.10;3.45;;;;;;;12.35;72.95;99724.88;5039506;28;20360;-58
2021/12/03 02:49:14;;;;;;;;;;;;;;;12.33;72.63;99721.72;5029408;28;20048;-57
2021/12/03 02:51:59;;;;;;;5.53;3.30;;;;;;;12.32;72.72;99731.03;5034800;28;19913;-58
2021/12/03 02:54:44;;;;;;;7.18;3.30;;;;;;;12.34;72.70;99745.09;5039491;28;20048;-58
2021/12/03 02:57:29;;;;;;;;;;;;;;;12.35;72.91;99749.41;5037734;28;20748;-58
2021/12/03 03:00:16;;;;;;;3.90;2.53;;;;;;;12.34;73.04;99757.97;5035662;28;19913;-58
2021/12/03 03:03:01;;;;;;;5.43;3.00;;;;;;;12.36;73.28;99769.28;5034009;28;20412;-58
2021/12/03 03:05:55;;;;;;;3.13;1.92;;;;;;;12.41;73.27;99783.47;5037575;28;20052;-58
2021/12/03 03:08:42;;;;;;;4.17;2.30;;;;;;;12.49;73.14;99787.19;5029889;28;20048;-58
2021/12/03 03:11:29;;;;;;;5.35;3.42;;;;;;;12.50;73.06;99790.66;5035759;28;20041;-57
2021/12/03 03:14:14;;;;;;;9.13;3.90;;;;;;;12.52;72.95;99791.91;5039743;28;20511;-58
2021/12/03 03:16:59;;;;;;;5.32;3.15;;;;;;;12.50;73.12;99796.91;5035097;28;20284;-58
2021/12/03 03:19:44;;;;;;;3.85;2.65;;;;;;;12.48;72.98;99796.50;5038962;28;20052;-58
2021/12/03 03:22:29;;;;;;;;;;;;;;;12.49;70.03;99800.03;5037226;28;20048;-58
2021/12/03 03:25:17;;;;;;;6.90;3.70;;;;;;;12.46;71.63;99806.16;5034605;28;20292;-58
2021/12/03 03:28:02;;;;;;;10.82;6.40;;;;;;;12.41;70.82;99802.56;5031718;28;20048;-58
2021/12/03 03:30:49;;;;;;;11.55;7.43;;;;;;;12.40;69.39;99794.72;5036283;28;20044;-57
2021/12/03 03:33:34;;;;;;;10.10;7.50;;;;;;;12.37;69.35;99803.59;5035421;28;20416;-58
2021/12/03 03:36:19;;;;;;;16.38;8.75;;;;;;;12.34;68.14;99815.22;5038630;28;20045;-58
2021/12/03 03:39:09;;;;;;;11.13;6.95;;;;;;;12.32;67.13;99801.91;5030980;28;20060;-58
2021/12/03 03:41:54;;;;;;;6.68;4.90;;;;;;;12.31;69.38;99805.00;5033684;28;20099;-57
2021/12/03 03:44:40;;;;;;;8.82;4.90;;;;;;;12.30;70.74;99808.84;5036362;28;20044;-58
2021/12/03 03:47:24;;;;;;;10.00;6.30;;;;;;;12.28;70.05;99811.94;5034055;28;20048;-57
2021/12/03 03:50:10;;;;;;;;;;;;;;;12.30;70.91;99809.66;5038426;28;20048;-58
2021/12/03 03:52:57;;;;;;;5.07;3.60;;;;;;;12.30;71.94;99815.09;5046206;28;19913;-58
2021/12/03 03:55:42;;;;;;;10.73;6.53;;;;;;;12.28;70.87;99816.59;5023820;28;20044;-58
2021/12/03 03:58:26;;;;;;;;;;;;;;;12.26;69.66;99827.84;5039530;28;20051;-58
2021/12/03 04:01:12;;;;;;;13.90;7.15;;;;;;;12.25;69.28;99828.97;5035942;28;19917;-58
2021/12/03 04:03:57;;;;;;;11.23;8.07;;;;;;;12.22;67.78;99835.13;5039823;28;20056;-57
2021/12/03 04:06:45;;;;;;;8.15;5.70;;;;;;;12.23;69.30;99844.09;5038207;28;20688;-58
2021/12/03 04:09:30;;;;;;;8.18;5.30;;;;;;;12.22;70.16;99847.97;5030077;28;20060;-58
2021/12/03 04:12:15;;;;;;;;;;;;;;;12.23;71.69;99857.75;5032950;28;20048;-58
2021/12/03 04:15:00;;;;;;;8.70;5.47;;;;;;;12.22;72.05;99861.59;5037993;28;19921;-57
2021/12/03 04:17:46;;;;;;;5.95;3.88;;;;;;;12.22;72.42;99865.13;5036362;28;20046;-58
2021/12/03 04:20:31;;;;;;;7.10;4.20;;;;;;;12.22;72.75;99872.50;5034414;28;20056;-58
2021/12/03 04:23:20;;;;;;;11.07;6.90;;;;;;;12.20;71.01;99872.84;5033026;28;20056;-58
2021/12/03 04:26:05;;;;;;;7.30;5.05;;;;;;;12.21;71.72;99885.34;5036384;28;20098;-57
2021/12/03 04:28:50;;;;;;;7.07;3.40;;;;;;;12.21;72.33;99876.34;5034789;28;20060;-57
2021/12/03 04:31:35;;;;;;;8.02;3.80;;;;;;;12.20;72.80;99891.13;5032110;28;20044;-58
2021/12/03 04:34:19;;;;;;;;;;;;;;;12.16;72.90;99901.94;5029309;28;20052;-58
2021/12/03 04:37:04;;;;;;;7.53;4.53;;;;;;;12.12;73.30;99909.22;5041461;23;19913;-59
2021/12/03 04:39:51;;;;;;;;;;;;;;;12.13;72.74;99912.75;5009403;28;20129;-59
2021/12/03 04:42:36;;;;;;;8.15;4.47;;;;;;;12.12;72.92;99917.41;4994275;28;19913;-59
2021/12/03 04:45:21;;;;;;;;;;;;;;;12.16;72.62;99921.00;4993002;28;20042;-59
2021/12/03 04:48:07;;;;;;;5.25;3.65;;;;;;;12.14;73.10;99926.00;4996096;28;19918;-59
2021/12/03 04:50:52;;;;;;;9.75;5.20;;;;;;;12.16;72.75;99936.56;4995317;28;20057;-59
2021/12/03 04:53:37;;;;;;;9.10;6.07;;;;;;;12.14;71.21;99930.69;4998178;28;20500;-59
2021/12/03 04:56:22;;;;;;;8.10;6.10;;;;;;;12.14;71.83;99936.91;4993668;28;20533;-60
2021/12/03 04:59:07;;;;;;;9.63;5.28;;;;;;;12.13;72.34;99943.50;4998857;28;20532;-59
2021/12/03 05:01:56;;;;;;;6.82;3.47;;;;;;;12.14;73.05;99941.59;4987976;28;20079;-59
2021/12/03 05:04:41;;;;;;;6.38;3.90;;;;;;;12.12;73.46;99931.03;5001473;28;20512;-59
2021/12/03 05:07:53;;;;;;;3.70;2.50;;;;;;;12.12;73.71;99936.47;5002359;28;20551;-59
2021/12/03 05:10:41;;;;;;;6.47;4.07;;;;;;;12.15;73.53;99948.59;4990098;28;20525;-59
2021/12/03 05:13:30;;;;;;;7.10;4.13;;;;;;;12.14;73.88;99947.81;4995866;28;20417;-58
2021/12/03 05:16:16;;;;;;;8.15;4.53;;;;;;;12.13;73.61;99953.63;4997105;28;20046;-59
2021/12/03 05:19:01;;;;;;;5.78;4.50;;;;;;;12.11;73.77;99964.06;4990257;28;20041;-59
2021/12/03 05:21:46;;;;;;;;;;;;;;;12.08;73.94;99959.31;4994460;28;20414;-59
2021/12/03 05:24:31;;;;;;;9.40;4.77;;;;;;;12.04;73.88;99969.31;4997168;28;19913;-59
2021/12/03 05:27:17;;;;;;;;;;;;;;;12.04;73.54;99970.06;4993892;28;20065;-59
2021/12/03 05:30:02;;;;;;;7.82;4.93;;;;;;;12.07;73.95;99980.31;4996880;28;19918;-59
2021/12/03 05:32:47;;;;;;;6.63;4.15;;;;;;;12.08;73.86;99983.84;4999511;28;20181;-59
2021/12/03 05:35:32;;;;;;;;;;;;;;;12.11;73.73;99994.03;4991671;28;20045;-59
2021/12/03 05:38:17;;;;;;;7.03;4.40;;;;;;;12.07;73.94;99993.94;4984077;28;19918;-59
2021/12/03 05:41:03;;;;;;;;;;;;;;;12.10;74.03;100001.41;4992997;28;20050;-59
2021/12/03 05:43:47;;;;;;;6.82;3.67;;;;;;;12.07;73.59;100002.13;4981867;28;19914;-59
2021/12/03 05:46:32;;;;;;;5.32;3.55;;;;;;;12.09;73.88;100007.22;4984657;28;20037;-59
2021/12/03 05:49:17;;;;;;;4.93;3.38;;;;;;;12.08;73.49;100002.91;4979011;28;20061;-59
2021/12/03 05:52:02;;;;;;;8.10;4.03;;;;;;;12.08;73.36;100011.09;4983654;28;20053;-60
2021/12/03 05:54:47;;;;;;;10.63;5.70;;;;;;;12.02;73.68;100015.16;4987942;28;20057;-60
2021/12/03 05:57:32;;;;;;;8.80;4.13;;;;;;;12.02;73.53;100015.16;4994414;28;20034;-60
2021/12/03 06:00:23;;;;;;;7.13;4.35;;;;;;;12.03;74.26;100023.00;4995485;28;20050;-61
2021/12/03 06:03:08;;;;;;;6.20;4.00;;;;;;;12.00;74.28;100020.94;5001720;28;20049;-60
2021/12/03 06:05:53;;;;;;;8.80;4.25;;;;;;;11.94;73.83;100020.38;4998000;28;20054;-59
2021/12/03 06:08:38;;;;;;;6.00;3.78;;;;;;;11.93;74.24;100037.88;4994588;28;20054;-59
2021/12/03 06:11:24;;;;;;;6.10;2.97;;;;;;;11.94;74.63;100034.00;4982375;28;20046;-59
2021/12/03 06:14:09;;;;;;;12.05;4.10;;;;;;;11.95;74.38;100041.06;4998172;28;20072;-59
2021/12/03 06:16:55;;;;;;;7.05;3.00;;;;;;;11.96;75.08;100039.13;5001594;28;20130;-60
2021/12/03 06:19:40;;;;;;;8.55;4.15;;;;;;;11.97;74.99;100044.25;4984642;28;20065;-59
2021/12/03 06:22:25;;;;;;;14.52;4.20;;;;;;;11.97;75.38;100055.16;5001499;28;20049;-60
2021/12/03 06:25:12;;;;;;;6.07;2.97;;;;;;;11.95;75.47;100062.84;5001450;28;20050;-60
2021/12/03 06:27:58;;;;;;;9.98;3.65;;;;;;;11.95;75.67;100067.50;5000638;28;20377;-60
2021/12/03 06:30:43;;;;;;;6.75;4.10;;;;;;;11.97;75.77;100082.38;4993492;28;20045;-57
2021/12/03 06:33:28;;;;;;;6.10;2.67;;;;;;;11.97;75.97;100085.13;4990857;28;20061;-57
2021/12/03 06:36:13;;;;;;;;;;;;;;;11.98;75.72;100089.44;5000452;28;20505;-57
2021/12/03 06:38:58;;;;;;;5.40;3.72;;;;;;;11.94;75.53;100091.22;4990529;28;19914;-57
2021/12/03 06:41:43;;;;;;;7.68;3.67;;;;;;;11.94;75.86;100090.44;4990003;28;20045;-57
2021/12/03 06:44:28;;;;;;;7.72;3.15;;;;;;;11.87;75.92;100099.19;4976867;28;20045;-57
2021/12/03 06:47:13;;;;;;;15.25;5.50;;;;;;;11.93;75.94;100105.22;4982717;28;20038;-57
2021/12/03 06:49:59;;;;;;;4.93;2.70;;;;;;;11.91;75.20;100107.47;4996455;28;20065;-57
2021/12/03 06:55:50;;;;;;;7.47;4.70;;;;;;;11.88;74.82;100121.78;4994458;28;20045;-57
2021/12/03 06:58:35;;;;;;;9.93;4.63;;;;;;;11.88;74.90;100129.94;4995043;28;20049;-57
2021/12/03 07:01:19;;;;;;;5.20;2.58;;;;;;;11.86;74.88;100130.28;4996682;28;20057;-57
2021/12/03 07:04:04;;;;;;;6.85;4.05;;;;;;;11.76;75.04;100133.44;4996337;28;20045;-58
2021/12/03 07:06:50;;;;;;;16.27;6.78;;;;;;;11.50;71.41;100146.47;4994207;28;20041;-56
2021/12/03 07:09:34;;;;;;;;;;;;;;;11.46;69.39;100142.84;4999018;28;20049;-56
2021/12/03 07:12:19;;;;;;;12.15;7.47;;;;;;;11.38;67.26;100147.22;4991882;28;19913;-56
2021/12/03 07:15:04;;;;;;;12.77;7.00;;;;;;;11.24;68.15;100154.09;4994876;28;20425;-57
2021/12/03 07:17:51;;;;;;;17.80;10.63;;;;;;;11.23;63.96;100160.66;4991857;28;20045;-56
2021/12/03 07:20:36;;;;;;;17.38;10.23;;;;;;;11.25;63.17;100172.00;4995203;28;20042;-56
2021/12/03 07:23:21;;;;;;;;;;;;;;;11.01;62.35;100173.47;4994846;28;20034;-57
2021/12/03 07:26:05;;;;;;;14.57;9.00;;;;;;;10.95;67.93;100174.78;5000000;28;19913;-57
2021/12/03 07:28:51;;;;;;;;;;;;;;;10.94;70.55;100184.06;4997832;28;20045;-57
2021/12/03 07:31:36;;;;;;;22.25;13.02;;;;;;;11.00;69.58;100185.47;4990187;28;19914;-57
2021/12/03 07:34:46;;;;;;;17.05;8.88;;;;;;;10.92;66.22;100193.72;4993974;28;20042;-57
2021/12/03 07:45:45;;;;;;;23.60;14.90;;;;;;;10.95;61.90;100202.00;4980758;28;20486;-57
2021/12/03 07:48:30;;;;;;;22.70;12.40;;;;;;;11.06;59.78;100214.09;4990814;28;20042;-56
2021/12/03 07:51:17;;;;;;;17.10;10.05;;;;;;;10.99;59.53;100219.25;4991887;28;20046;-56
2021/12/03 07:54:01;;;;;;;24.05;13.70;;;;;;;11.06;58.73;100219.53;4993250;28;20046;-56
2021/12/03 07:56:46;;;;;;;22.75;10.27;;;;;;;11.05;58.64;100223.38;4993050;28;20042;-56
2021/12/03 07:59:31;;;;;;;24.48;13.95;;;;;;;11.06;58.77;100233.13;4992633;28;20038;-57
2021/12/03 08:02:16;;;;;;;;;;;;;;;10.97;59.59;100237.81;4985341;28;20043;-58
2021/12/03 08:05:01;;;;;;;24.48;14.70;;;;;;;10.96;60.07;100241.69;4992819;28;19914;-56
2021/12/03 08:07:47;;;;;;;22.77;11.90;;;;;;;10.85;60.07;100245.91;5005448;28;20039;-56
2021/12/03 08:10:35;;;;;;;24.83;15.07;;;;;;;10.89;60.78;100244.13;4992474;28;20046;-56
2021/12/03 08:13:20;;;;;;;22.83;13.48;;;;;;;10.78;63.39;100253.78;4992552;28;20405;-57
2021/12/03 08:16:05;;;;;;;21.60;12.88;;;;;;;10.78;62.95;100252.97;4989236;28;20034;-57
2021/12/03 08:18:49;;;;;;;17.02;9.65;;;;;;;10.81;64.68;100261.28;4991923;28;20402;-57
2021/12/03 08:21:34;;;;;;;20.90;12.05;;;;;;;10.70;66.50;100268.22;4992734;28;20045;-57
2021/12/03 08:24:19;;;;;;;19.73;12.20;;;;;;;10.66;64.92;100270.78;4987682;28;20047;-56
2021/12/03 08:27:06;;;;;;;38.75;21.90;;;;;;;10.68;63.38;100287.56;4991388;28;20038;-56
2021/12/03 08:29:51;;;;;;;29.67;16.17;;;;;;;10.76;63.27;100280.50;4990229;28;20042;-56
2021/12/03 08:32:36;;;;;;;28.63;15.30;;;;;;;10.55;65.03;100285.06;4992698;28;20042;-56
2021/12/03 08:35:21;;;;;;;18.50;10.98;;;;;;;10.52;65.46;100293.84;4992471;28;20042;-56
2021/12/03 08:38:07;;;;;;;25.55;13.38;;;;;;;10.63;66.00;100289.66;4992447;28;20038;-57
2021/12/03 08:40:52;;;;;;;21.13;12.32;;;;;;;10.54;65.85;100286.97;4992492;28;20426;-56
2021/12/03 08:43:37;;;;;;;19.00;10.65;;;;;;;10.66;66.12;100295.28;4992642;28;20046;-56
2021/12/03 08:46:27;;;;;;;24.02;12.13;;;;;;;10.51;67.23;100295.00;4992287;28;20050;-56
2021/12/03 08:49:31;;;;;;;26.05;15.10;;;;;;;10.41;67.57;100306.22;4992497;28;20042;-57
2021/12/03 08:55:04;;;;;;;19.02;10.40;;;;;;;10.58;71.29;100311.59;4990741;28;20038;-56
2021/12/03 08:57:49;;;;;;;17.00;9.23;;;;;;;10.57;71.51;100315.44;4989261;28;20042;-56
2021/12/03 09:00:36;;;;;;;15.00;8.68;;;;;;;10.62;71.78;100323.41;4990630;28;20045;-56
2021/12/03 09:03:21;;;;;;;23.15;12.10;;;;;;;10.60;70.92;100326.47;5004941;28;20409;-56
2021/12/03 09:06:06;;;;;;;14.82;8.23;;;;;;;10.62;72.09;100328.84;4990690;28;20043;-56
2021/12/03 09:08:50;;;;;;;16.00;9.63;;;;;;;10.59;70.95;100337.66;4989308;28;20057;-56
2021/12/03 09:11:36;;;;;;;18.83;10.48;;;;;;;10.65;72.32;100348.06;4990505;28;20101;-56
2021/12/03 09:17:36;;;;;;;16.57;10.37;;;;;;;10.74;73.71;100348.00;4991146;28;20030;-57
2021/12/03 09:20:33;;;;;;;19.77;9.15;;;;;;;10.89;74.58;100360.28;4990055;28;20788;-56
2021/12/03 09:26:16;;;;;;;19.85;10.63;;;;;;;10.96;74.20;100374.19;4988561;28;20050;-56
2021/12/03 09:29:07;;;;;;;16.30;9.45;;;;;;;11.06;74.96;100365.66;4991545;28;20042;-56
2021/12/03 09:31:52;;;;;;;15.65;7.80;;;;;;;11.15;75.66;100366.41;4990610;28;20073;-56
2021/12/03 09:34:36;;;;;;;10.88;7.40;;;;;;;11.18;75.20;100373.91;4990701;28;20513;-56
2021/12/03 09:37:22;;;;;;;12.85;6.55;;;;;;;11.20;75.06;100379.03;4985984;28;20509;-56
2021/12/03 09:40:19;;;;;;;13.73;7.28;;;;;;;11.30;75.65;100378.69;4990314;28;20057;-56
2021/12/03 09:43:51;;;;;;;18.13;10.40;;;;;;;11.20;74.37;100381.75;4995278;28;20057;-56
2021/12/03 09:46:38;;;;;;;15.98;9.35;;;;;;;11.15;72.31;100378.09;4994769;28;20047;-56
2021/12/03 09:49:56;;;;;;;19.85;10.52;;;;;;;11.11;71.75;100385.34;4994736;28;20126;-56
2021/12/03 09:55:45;;;;;;;24.00;11.18;;;;;;;11.04;69.16;100390.47;5006782;28;20049;-56
2021/12/03 10:01:23;;;;;;;16.23;7.03;;;;;;;11.13;70.72;100399.41;4988083;28;20045;-57
2021/12/03 10:10:51;;;;;;;14.27;8.43;;;;;;;10.91;64.80;100387.97;4993859;28;20042;-57
2021/12/03 10:13:24;;;;;;;16.03;8.20;;;;;;;10.99;66.87;100392.56;4987505;28;20041;-57
2021/12/03 10:19:16;;;;;;;27.33;9.25;;;;;;;11.05;62.61;100391.28;4992846;28;20045;-57
2021/12/03 10:26:11;;;;;;;18.85;9.63;;;;;;;10.99;56.55;100389.84;4988382;28;20045;-57
2021/12/03 10:38:25;;;;;;;16.92;6.85;;;;;;;10.71;52.91;100386.75;4984758;28;20038;-58
2021/12/03 10:44:31;;;;;;;10.90;6.10;;;;;;;10.93;50.35;100389.22;5050376;28;20044;-80
2021/12/03 10:53:37;;;;;;;11.95;5.25;;;;;;;11.12;49.55;100386.13;5029522;28;20056;-80
2021/12/03 11:12:40;;;;;;;11.20;5.60;;;;;;;11.06;53.88;100385.50;5040430;28;20052;-79
2021/12/03 12:59:47;;;;;;;1.80;0.80;;;;;;;12.16;50.02;100359.84;5034728;28;20037;-81
2021/12/03 13:14:42;;;;;;;1.13;0.60;;;;;;;12.56;47.79;100367.47;5053503;28;20563;-80
2021/12/03 14:07:02;;;;;;;3.42;1.40;;;;;;;14.78;42.59;100400.16;5029578;28;20045;-82
2021/12/03 14:40:34;;;;;;;5.50;1.75;;;;;;;15.46;37.03;100444.53;5047727;28;20480;-84
2021/12/03 14:43:25;;;;;;;2.05;1.60;;;;;;;15.48;37.72;100446.91;5017595;28;20310;-84
2021/12/03 14:46:32;;;;;;;4.07;1.83;;;;;;;15.51;38.01;100448.94;5032495;28;20407;-83
2021/12/03 14:52:39;;;;;;;2.40;1.65;;;;;;;15.44;37.39;100454.25;5036874;28;20049;-84
2021/12/03 14:55:27;;;;;;;2.80;2.08;;;;;;;15.45;37.73;100451.16;5032998;28;20045;-84
2021/12/03 14:58:27;;;;;;;3.25;2.45;;;;;;;15.47;38.24;100461.75;5022746;28;20049;-84
2021/12/03 15:01:36;;;;;;;4.97;2.53;;;;;;;15.47;38.55;100462.56;5017881;28;20041;-84
2021/12/03 15:04:35;;;;;;;4.47;2.38;;;;;;;15.47;37.95;100456.28;5009381;28;20053;-85
2021/12/03 15:07:24;;;;;;;5.57;2.90;;;;;;;15.47;38.34;100462.56;5007225;28;20407;-84
2021/12/03 15:10:15;;;;;;;4.97;2.50;;;;;;;15.47;37.81;100448.06;5031785;28;20056;-84
2021/12/03 15:19:24;;;;;;;13.57;6.88;;;;;;;15.54;38.31;100454.56;5035852;28;20049;-84
2021/12/03 15:53:33;;;;;;;11.55;2.70;;;;;;;14.95;39.76;100471.00;5034916;28;20411;-84
2021/12/03 16:04:50;;;;;;;13.48;3.70;;;;;;;14.68;42.35;100483.53;5018573;28;20045;-84
2021/12/03 16:10:26;;;;;;;;;;;;;;;14.69;44.88;100496.09;5032955;28;20049;-84
2021/12/03 16:19:56;;;;;;;33.67;15.88;;;;;;;14.64;44.25;100520.97;5037956;28;20052;-84
2021/12/03 16:51:51;;;;;;;19.50;5.78;;;;;;;14.10;44.82;100572.44;5014483;28;20081;-58
2021/12/03 16:54:48;;;;;;;18.55;6.18;;;;;;;14.07;44.67;100584.03;5009940;28;20121;-58
2021/12/03 16:57:35;;;;;;;31.77;7.20;;;;;;;14.17;43.52;100586.31;5011421;28;20061;-58
2021/12/03 17:03:30;;;;;;;20.40;7.82;;;;;;;13.82;43.70;100583.22;5011926;28;20069;-59
2021/12/03 17:21:54;;;;;;;17.42;7.85;;;;;;;13.85;47.27;100609.09;5013108;28;20068;-56
2021/12/03 17:30:12;;;;;;;22.58;8.77;;;;;;;13.42;45.58;100623.22;5006441;28;20373;-57
2021/12/03 17:45:57;;;;;;;18.30;8.65;;;;;;;13.39;46.10;100630.16;5009012;28;20053;-57
2021/12/03 17:51:51;;;;;;;23.27;8.95;;;;;;;13.44;47.17;100642.81;4992155;28;20030;-56
2021/12/03 17:54:46;;;;;;;22.80;7.85;;;;;;;12.96;45.86;100633.22;5009623;28;20405;-57
2021/12/03 18:00:50;;;;;;;28.30;8.05;;;;;;;13.18;45.84;100640.31;5013119;28;20045;-57
2021/12/03 18:03:53;;;;;;;30.85;9.40;;;;;;;13.34;46.30;100638.56;5013590;28;20041;-58
2021/12/03 18:10:04;;;;;;;35.88;14.48;;;;;;;13.24;45.08;100639.78;5013122;28;20053;-57
2021/12/03 18:43:40;;;;;;;18.83;8.43;;;;;;;13.14;50.56;100672.16;5023798;28;20397;-57
2021/12/03 18:55:02;;;;;;;20.80;8.93;;;;;;;13.09;51.08;100675.03;5012211;28;20512;-58
2021/12/03 18:57:51;;;;;;;26.33;9.63;;;;;;;13.11;51.91;100684.50;5013513;28;20049;-57
2021/12/03 19:00:41;;;;;;;21.70;9.30;;;;;;;13.02;50.14;100680.22;5013692;28;20101;-57
2021/12/03 19:04:13;;;;;;;26.70;13.57;;;;;;;13.09;52.85;100683.22;5019515;28;20061;-57
2021/12/03 19:06:57;;;;;;;31.77;18.13;;;;;;;13.14;54.30;100688.53;5013383;28;20433;-57
2021/12/03 19:09:47;;;;;;;22.15;11.05;;;;;;;13.14;51.59;100686.59;5012864;28;20038;-56
2021/12/03 19:12:35;;;;;;;22.73;10.77;;;;;;;13.14;51.83;100683.06;5013830;28;20042;-56
2021/12/03 19:15:20;;;;;;;23.60;10.50;;;;;;;12.98;48.86;100691.00;5012558;28;20413;-56
2021/12/03 19:18:05;;;;;;;22.38;9.73;;;;;;;12.86;48.01;100689.00;5013585;28;20042;-56
2021/12/03 19:20:52;;;;;;;;;;;;;;;12.79;45.18;100686.00;5013876;28;20048;-57
2021/12/03 19:23:36;;;;;;;;;;;;;;;12.72;46.03;100672.06;5013991;28;19913;-56
2021/12/03 19:26:21;;;;;;;26.80;18.38;;;;;;;12.60;45.63;100671.97;5013410;28;19913;-58
2021/12/03 19:29:06;;;;;;;27.55;13.70;;;;;;;12.67;47.84;100671.47;5013225;28;20045;-56
2021/12/03 19:31:52;;;;;;;23.63;8.07;;;;;;;12.84;51.23;100685.00;5013375;28;20252;-58
2021/12/03 19:34:37;;;;;;;15.63;8.75;;;;;;;12.86;51.92;100689.00;5015371;28;20064;-58
2021/12/03 19:37:24;;;;;;;11.43;6.68;;;;;;;13.02;56.06;100697.41;5012796;28;20540;-56
2021/12/03 19:40:11;;;;;;;17.60;8.40;;;;;;;12.90;53.94;100697.31;5012271;28;20049;-58
2021/12/03 19:43:04;;;;;;;16.92;8.70;;;;;;;12.96;55.91;100701.44;5019645;28;20045;-56
2021/12/03 19:45:56;;;;;;;12.60;7.72;;;;;;;12.86;52.83;100693.66;5011312;28;20052;-56
2021/12/03 19:48:48;;;;;;;15.07;8.48;;;;;;;12.92;55.12;100694.25;5002475;28;20049;-57
2021/12/03 19:51:36;;;;;;;18.77;6.75;;;;;;;13.02;58.15;100702.06;5003905;28;20052;-56
2021/12/03 19:54:23;;;;;;;15.25;7.53;;;;;;;12.97;53.62;100685.88;5006090;28;20044;-56
2021/12/03 19:57:08;;;;;;;14.05;6.55;;;;;;;12.86;54.18;100678.09;5015253;28;20061;-56
2021/12/03 19:59:53;;;;;;;19.10;6.55;;;;;;;13.01;57.14;100686.81;5008448;28;20048;-56
2021/12/03 20:02:38;;;;;;;14.13;7.75;;;;;;;12.86;53.36;100693.66;5017808;28;20100;-56
2021/12/03 20:05:22;;;;;;;;;;;;;;;12.67;49.61;100691.38;5008521;28;20069;-56
2021/12/03 20:08:08;;;;;;;30.58;11.25;;;;;;;12.59;46.90;100686.78;5013169;28;19913;-57
2021/12/03 20:10:58;;;;;;;42.78;13.68;;;;;;;12.72;46.50;100693.09;5005787;28;20045;-56
2021/12/03 20:13:47;;;;;;;37.55;12.85;;;;;;;12.56;46.56;100695.59;5007744;28;20041;-57
2021/12/03 20:16:47;;;;;;;29.75;13.57;;;;;;;12.47;48.03;100685.84;5015425;28;20489;-56
2021/12/03 20:19:38;;;;;;;50.72;14.25;;;;;;;12.53;52.21;100695.47;5014033;28;20041;-56
2021/12/03 20:28:24;;;;;;;26.90;10.30;;;;;;;12.90;60.38;100712.91;5012760;28;20030;-56
2021/12/03 20:31:10;;;;;;;29.85;10.75;;;;;;;13.02;62.45;100712.97;5022087;28;20045;-56
2021/12/03 20:39:34;;;;;;;26.13;10.98;;;;;;;13.21;66.32;100732.47;5006632;28;20029;-57
2021/12/03 20:42:27;;;;;;;19.02;9.60;;;;;;;12.94;54.24;100722.03;5021865;28;20045;-57